Time;durP1;ratioP1;P1;durP2;ratioP2;P2;SDS_P1;SDS_P2;PMS_P1;PMS_P2;Temp;Humidity;BMP_temperature;BMP_pressure;BME280_temperature;BME280_humidity;BME280_pressure;Samples;Min_cycle;Max_cycle;Signal;HPM_P1;HPM_P2
2024/01/28 00:01:58;;;;;;;6.30;2.87;;;3.60;99.90;;;;;;5033957;28;20312;-64
2024/01/28 00:04:23;;;;;;;6.10;3.40;;;3.60;99.90;;;;;;5026021;28;20213;-64
2024/01/28 00:06:54;;;;;;;4.60;2.77;;;3.60;99.90;;;;;;5018936;28;20170;-65
2024/01/28 00:09:19;;;;;;;5.57;3.10;;;3.60;99.90;;;;;;5034365;28;20181;-63
2024/01/28 00:11:45;;;;;;;5.63;3.27;;;3.50;99.90;;;;;;5031360;28;20198;-63
2024/01/28 00:14:11;;;;;;;6.83;4.20;;;3.50;99.90;;;;;;5023877;28;20260;-64
2024/01/28 00:16:36;;;;;;;6.70;4.10;;;3.40;99.90;;;;;;5032038;28;20789;-64
2024/01/28 00:19:05;;;;;;;6.77;3.23;;;3.40;99.90;;;;;;5029293;28;20178;-65
2024/01/28 00:21:34;;;;;;;8.17;3.13;;;3.40;99.90;;;;;;5034037;28;20205;-65
2024/01/28 00:24:06;;;;;;;5.13;3.47;;;3.30;99.90;;;;;;5033185;28;20185;-64
2024/01/28 00:26:40;;;;;;;5.40;3.30;;;3.30;99.90;;;;;;5032518;28;20165;-64
2024/01/28 00:29:09;;;;;;;6.07;3.53;;;3.30;99.90;;;;;;5028747;28;20214;-64
2024/01/28 00:31:34;;;;;;;8.07;4.47;;;3.20;99.90;;;;;;5032270;28;20185;-65
2024/01/28 00:34:03;;;;;;;6.87;4.43;;;3.20;99.90;;;;;;5033556;28;20198;-65
2024/01/28 00:36:28;;;;;;;5.00;3.60;;;3.20;99.90;;;;;;5033022;28;20193;-65
2024/01/28 00:38:56;;;;;;;6.20;3.30;;;3.20;99.90;;;;;;5033266;28;20200;-64
2024/01/28 00:41:23;;;;;;;6.40;2.80;;;3.10;99.90;;;;;;5033245;28;20173;-61
2024/01/28 00:43:54;;;;;;;4.63;2.93;;;3.10;99.90;;;;;;5030528;28;20178;-65
2024/01/28 00:46:22;;;;;;;6.63;2.67;;;3.10;99.90;;;;;;5017582;28;20182;-65
2024/01/28 00:48:51;;;;;;;4.73;3.20;;;3.00;99.90;;;;;;5033770;28;20244;-65
2024/01/28 00:51:16;;;;;;;4.83;2.60;;;3.00;99.90;;;;;;5031936;28;20186;-64
2024/01/28 00:53:45;;;;;;;7.43;3.20;;;3.00;99.90;;;;;;5031850;28;20297;-64
2024/01/28 00:56:16;;;;;;;5.70;3.00;;;3.00;99.90;;;;;;5017981;28;20249;-64
2024/01/28 00:58:45;;;;;;;4.07;2.50;;;3.00;99.90;;;;;;5029247;28;20204;-65
2024/01/28 01:01:10;;;;;;;5.63;2.70;;;3.00;99.90;;;;;;5014328;28;20178;-64
2024/01/28 01:03:41;;;;;;;3.10;2.30;;;3.00;99.90;;;;;;5024924;28;20171;-65
2024/01/28 01:06:07;;;;;;;5.37;2.30;;;3.00;99.90;;;;;;5031349;28;20174;-64
2024/01/28 01:08:33;;;;;;;5.07;2.40;;;3.00;99.90;;;;;;5032998;28;20344;-64
2024/01/28 01:11:03;;;;;;;5.27;2.73;;;3.00;99.90;;;;;;5061154;22;20256;-64
2024/01/28 01:13:30;;;;;;;4.63;2.73;;;3.10;99.90;;;;;;5013094;28;20199;-65
2024/01/28 01:15:55;;;;;;;4.23;2.57;;;3.10;99.90;;;;;;5012870;28;20216;-65
2024/01/28 01:18:24;;;;;;;5.10;2.40;;;3.10;99.90;;;;;;5026072;28;20260;-64
2024/01/28 01:20:52;;;;;;;6.40;2.53;;;3.10;99.90;;;;;;5013710;28;20178;-65
2024/01/28 01:23:20;;;;;;;3.97;2.37;;;3.10;99.90;;;;;;5014167;28;20174;-64
2024/01/28 01:25:46;;;;;;;3.97;2.33;;;3.40;99.90;;;;;;5016236;28;20289;-65
2024/01/28 01:28:11;;;;;;;4.50;2.70;;;3.20;99.90;;;;;;5017123;28;20234;-64
2024/01/28 01:30:39;;;;;;;5.47;2.40;;;3.20;99.90;;;;;;5015574;28;20270;-65
2024/01/28 01:33:07;;;;;;;3.83;2.10;;;3.30;99.90;;;;;;5024662;28;20193;-64
2024/01/28 01:35:32;;;;;;;4.23;2.30;;;3.20;99.90;;;;;;5031034;28;20273;-64
2024/01/28 01:37:58;;;;;;;4.60;2.53;;;3.20;99.90;;;;;;5014341;28;20209;-64
2024/01/28 01:40:24;;;;;;;3.27;2.17;;;3.20;99.90;;;;;;5014981;28;20202;-62
2024/01/28 01:42:53;;;;;;;4.67;2.30;;;3.20;99.90;;;;;;5001246;28;20174;-63
2024/01/28 01:45:20;;;;;;;6.80;2.90;;;3.20;99.90;;;;;;5012793;28;20266;-62
2024/01/28 01:47:49;;;;;;;4.27;2.47;;;3.20;99.90;;;;;;5033845;28;20202;-63
2024/01/28 01:50:15;;;;;;;4.67;2.60;;;3.20;99.90;;;;;;5017125;28;20171;-62
2024/01/28 01:52:42;;;;;;;4.50;2.63;;;3.20;99.90;;;;;;5016081;28;20270;-63
2024/01/28 01:55:09;;;;;;;7.33;2.50;;;3.30;99.90;;;;;;5015850;28;20230;-62
2024/01/28 01:57:37;;;;;;;5.07;2.50;;;3.30;99.90;;;;;;5015894;28;20175;-63
2024/01/28 02:00:03;;;;;;;4.20;2.60;;;3.20;99.90;;;;;;5016747;28;20203;-61
2024/01/28 02:02:32;;;;;;;5.40;2.67;;;3.20;99.90;;;;;;5012018;28;20190;-63
2024/01/28 02:04:58;;;;;;;5.27;2.80;;;3.20;99.90;;;;;;5016033;28;20189;-62
2024/01/28 02:07:25;;;;;;;4.37;2.63;;;3.20;99.90;;;;;;5015837;28;20207;-62
2024/01/28 02:09:53;;;;;;;5.67;2.60;;;3.20;99.90;;;;;;5015437;28;20178;-62
2024/01/28 02:12:19;;;;;;;5.87;2.80;;;3.20;99.90;;;;;;5011327;28;20270;-62
2024/01/28 02:14:47;;;;;;;4.67;2.47;;;3.20;99.90;;;;;;4996890;28;20195;-62
2024/01/28 02:17:17;;;;;;;5.97;2.70;;;3.20;99.90;;;;;;5012386;28;20178;-63
2024/01/28 02:19:45;;;;;;;3.53;2.30;;;3.20;99.90;;;;;;5012381;28;20293;-64
2024/01/28 02:22:13;;;;;;;3.80;2.43;;;3.20;99.90;;;;;;5015955;28;20174;-63
2024/01/28 02:24:41;;;;;;;4.27;2.43;;;3.20;99.90;;;;;;5015370;28;20179;-63
2024/01/28 02:27:09;;;;;;;4.50;2.47;;;3.20;99.90;;;;;;5015816;28;20198;-63
2024/01/28 02:29:36;;;;;;;5.27;2.80;;;3.30;99.90;;;;;;5011098;28;20191;-63
2024/01/28 02:32:02;;;;;;;4.20;2.40;;;3.20;99.90;;;;;;5011424;28;20175;-63
2024/01/28 02:34:28;;;;;;;5.03;2.50;;;3.20;99.90;;;;;;5011954;28;20197;-63
2024/01/28 02:36:53;;;;;;;3.77;2.30;;;3.20;99.90;;;;;;5014872;28;20185;-64
2024/01/28 02:39:19;;;;;;;4.93;2.77;;;3.30;99.90;;;;;;5014153;28;20194;-63
2024/01/28 02:41:45;;;;;;;3.50;2.63;;;3.20;99.90;;;;;;5002502;28;20238;-63
2024/01/28 02:44:12;;;;;;;5.03;3.07;;;3.20;99.90;;;;;;5008772;28;20281;-64
2024/01/28 02:46:40;;;;;;;4.30;2.77;;;3.20;99.90;;;;;;5015800;28;20182;-63
2024/01/28 02:49:06;;;;;;;3.40;2.17;;;3.20;99.90;;;;;;5012027;28;20187;-63
2024/01/28 02:51:34;;;;;;;6.40;2.83;;;3.20;99.90;;;;;;5015072;28;20199;-63
2024/01/28 02:53:59;;;;;;;4.77;2.73;;;3.30;99.90;;;;;;5015803;28;20286;-63
2024/01/28 02:56:25;;;;;;;5.27;2.33;;;3.20;99.90;;;;;;5013911;28;20262;-63
2024/01/28 02:58:51;;;;;;;5.37;2.70;;;3.10;99.90;;;;;;5015679;28;20203;-63
2024/01/28 03:01:16;;;;;;;4.90;2.70;;;3.10;99.90;;;;;;5014660;28;20429;-63
2024/01/28 03:03:42;;;;;;;4.47;2.70;;;3.10;99.90;;;;;;5012422;28;20209;-63
2024/01/28 03:06:07;;;;;;;8.37;2.97;;;3.10;99.90;;;;;;5015156;28;20283;-63
2024/01/28 03:08:35;;;;;;;7.60;3.07;;;3.10;99.90;;;;;;5004438;28;20237;-63
2024/01/28 03:11:01;;;;;;;8.27;3.57;;;3.10;99.90;;;;;;4996580;28;20205;-63
2024/01/28 03:13:29;;;;;;;5.07;2.93;;;3.10;99.90;;;;;;5015177;28;20202;-62
2024/01/28 03:15:55;;;;;;;6.23;2.80;;;3.10;99.90;;;;;;5013178;28;20191;-63
2024/01/28 03:18:25;;;;;;;4.63;2.53;;;3.10;99.90;;;;;;5015432;28;20178;-63
2024/01/28 03:20:52;;;;;;;6.37;3.00;;;3.10;99.90;;;;;;5001016;28;20171;-62
2024/01/28 03:23:19;;;;;;;5.73;2.70;;;3.10;99.90;;;;;;4998658;28;20234;-63
2024/01/28 03:25:50;;;;;;;7.37;2.93;;;3.00;99.90;;;;;;4998468;28;20190;-63
2024/01/28 03:28:16;;;;;;;4.87;2.70;;;3.00;99.90;;;;;;5003954;28;20268;-63
2024/01/28 03:30:41;;;;;;;5.50;2.67;;;3.00;99.90;;;;;;4995467;28;20183;-64
2024/01/28 03:33:07;;;;;;;5.13;2.87;;;3.00;99.90;;;;;;5012183;28;20264;-64
2024/01/28 03:35:32;;;;;;;4.40;2.53;;;3.00;99.90;;;;;;5014055;28;20203;-64
2024/01/28 03:38:01;;;;;;;5.80;3.00;;;3.00;99.90;;;;;;5010554;28;20178;-63
2024/01/28 03:40:29;;;;;;;5.67;3.40;;;3.00;99.90;;;;;;5014189;28;20171;-64
2024/01/28 03:42:57;;;;;;;5.20;3.40;;;3.00;99.90;;;;;;5011750;28;20175;-64
2024/01/28 03:45:23;;;;;;;6.27;3.23;;;3.00;99.90;;;;;;5012090;28;20175;-64
2024/01/28 03:47:50;;;;;;;5.83;3.40;;;3.10;99.90;;;;;;5013070;28;20216;-65
2024/01/28 03:50:19;;;;;;;7.90;3.23;;;3.00;99.90;;;;;;5009769;28;20191;-63
2024/01/28 03:52:47;;;;;;;7.27;3.13;;;3.00;99.90;;;;;;5006443;28;20174;-63
2024/01/28 03:55:13;;;;;;;7.33;3.30;;;3.00;99.90;;;;;;5027832;28;20296;-64
2024/01/28 03:57:39;;;;;;;6.80;3.20;;;3.10;99.90;;;;;;5014706;28;20202;-64
2024/01/28 04:00:11;;;;;;;6.63;3.27;;;3.10;99.90;;;;;;5010614;28;20222;-63
2024/01/28 04:02:37;;;;;;;4.30;2.80;;;3.10;99.90;;;;;;5010953;28;20245;-64
2024/01/28 04:05:03;;;;;;;4.63;2.37;;;3.10;99.90;;;;;;5008749;28;20217;-64
2024/01/28 04:07:31;;;;;;;6.33;3.20;;;3.10;99.90;;;;;;5012061;28;20194;-64
2024/01/28 04:10:02;;;;;;;3.57;2.50;;;3.20;99.90;;;;;;5000248;28;20213;-63
2024/01/28 04:12:27;;;;;;;3.17;2.33;;;3.20;99.90;;;;;;5011520;28;20233;-64
2024/01/28 04:14:53;;;;;;;4.03;2.50;;;3.20;99.90;;;;;;5014488;28;20206;-65
2024/01/28 04:17:18;;;;;;;4.23;2.00;;;3.20;99.90;;;;;;5007307;28;20237;-66
2024/01/28 04:19:44;;;;;;;5.13;2.37;;;3.20;99.90;;;;;;5013444;28;20213;-60
2024/01/28 04:22:13;;;;;;;5.67;2.10;;;3.20;99.90;;;;;;5011057;28;20234;-64
2024/01/28 04:24:41;;;;;;;4.33;2.23;;;3.20;99.90;;;;;;5011930;28;20179;-64
2024/01/28 04:27:09;;;;;;;3.73;2.33;;;3.20;99.90;;;;;;5011684;28;20232;-64
2024/01/28 04:29:37;;;;;;;3.70;2.40;;;3.10;99.90;;;;;;4994524;28;20272;-64
2024/01/28 04:32:05;;;;;;;3.87;2.27;;;3.10;99.90;;;;;;5003421;28;20182;-64
2024/01/28 04:34:34;;;;;;;5.03;2.83;;;3.10;99.90;;;;;;5011280;28;20213;-64
2024/01/28 04:37:01;;;;;;;4.30;2.13;;;3.10;99.90;;;;;;5014937;28;20199;-64
2024/01/28 04:39:32;;;;;;;4.13;2.40;;;3.10;99.90;;;;;;5004091;28;20178;-64
2024/01/28 04:42:04;;;;;;;5.03;2.60;;;3.00;99.90;;;;;;5013813;28;20206;-64
2024/01/28 04:44:30;;;;;;;3.43;2.30;;;3.00;99.90;;;;;;5013555;28;20175;-64
2024/01/28 04:46:57;;;;;;;4.47;2.50;;;3.00;99.90;;;;;;5013483;28;20209;-64
2024/01/28 04:49:27;;;;;;;4.10;2.20;;;2.90;99.90;;;;;;5014035;28;20237;-63
2024/01/28 04:51:55;;;;;;;3.40;1.83;;;2.90;99.90;;;;;;5009837;28;20175;-63
2024/01/28 04:54:22;;;;;;;3.57;2.10;;;2.90;99.90;;;;;;5005815;28;20276;-63
2024/01/28 04:56:48;;;;;;;4.40;2.33;;;2.90;99.90;;;;;;5014000;28;20195;-64
2024/01/28 04:59:16;;;;;;;9.07;2.50;;;2.90;99.90;;;;;;5013081;28;20226;-64
2024/01/28 05:01:41;;;;;;;5.80;2.43;;;2.90;99.90;;;;;;5016891;28;20183;-64
2024/01/28 05:04:09;;;;;;;4.17;2.10;;;2.90;99.90;;;;;;5006283;28;20281;-64
2024/01/28 05:06:40;;;;;;;3.10;2.20;;;2.80;99.90;;;;;;5018478;28;20214;-64
2024/01/28 05:09:10;;;;;;;3.33;2.10;;;2.80;99.90;;;;;;4998066;28;20186;-64
2024/01/28 05:11:38;;;;;;;3.00;2.00;;;2.80;99.90;;;;;;4999925;28;20211;-64
2024/01/28 05:14:06;;;;;;;3.33;2.17;;;2.80;99.90;;;;;;5017546;28;20199;-64
2024/01/28 05:16:34;;;;;;;3.50;2.17;;;2.90;99.90;;;;;;5017301;28;20171;-64
2024/01/28 05:19:02;;;;;;;4.33;2.47;;;2.80;99.90;;;;;;5016243;28;20218;-64
2024/01/28 05:21:27;;;;;;;3.50;2.07;;;2.80;99.90;;;;;;5016806;28;20225;-64
2024/01/28 05:23:55;;;;;;;4.40;2.27;;;2.80;99.90;;;;;;5014115;28;20302;-64
2024/01/28 05:26:24;;;;;;;5.00;2.63;;;2.80;99.90;;;;;;5011588;28;20178;-64
2024/01/28 05:28:49;;;;;;;3.03;2.00;;;2.90;99.90;;;;;;5016600;28;20194;-64
2024/01/28 05:31:19;;;;;;;3.90;2.47;;;2.80;99.90;;;;;;5016280;28;20334;-64
2024/01/28 05:33:47;;;;;;;3.77;2.27;;;2.80;99.90;;;;;;5016035;28;20292;-63
2024/01/28 05:36:14;;;;;;;4.50;1.90;;;2.80;99.90;;;;;;5017816;28;20210;-69
2024/01/28 05:38:40;;;;;;;3.90;2.43;;;2.80;99.90;;;;;;5015497;28;20182;-69
2024/01/28 05:41:07;;;;;;;4.47;2.47;;;2.80;99.90;;;;;;5022074;28;20205;-69
2024/01/28 05:43:33;;;;;;;2.93;1.90;;;2.80;99.90;;;;;;5016884;28;20178;-70
2024/01/28 05:45:59;;;;;;;4.77;2.30;;;2.80;99.90;;;;;;5016347;28;20237;-70
2024/01/28 05:48:25;;;;;;;4.43;2.50;;;2.80;99.90;;;;;;5016656;28;20182;-69
2024/01/28 05:50:50;;;;;;;5.20;2.30;;;2.80;99.90;;;;;;5016913;28;20186;-70
2024/01/28 05:53:16;;;;;;;3.67;2.40;;;2.70;99.90;;;;;;5015343;28;20210;-70
2024/01/28 05:55:41;;;;;;;6.43;2.30;;;2.70;99.90;;;;;;5016722;28;20175;-69
2024/01/28 05:58:09;;;;;;;4.17;2.10;;;2.70;99.90;;;;;;5021940;28;20206;-69
2024/01/28 06:00:35;;;;;;;3.47;2.00;;;2.70;99.90;;;;;;5015886;28;20171;-68
2024/01/28 06:03:03;;;;;;;2.37;1.90;;;2.70;99.90;;;;;;5012352;28;20189;-64
2024/01/28 06:05:29;;;;;;;4.07;2.20;;;2.70;99.90;;;;;;5009118;28;20199;-70
2024/01/28 06:07:55;;;;;;;3.13;1.97;;;2.60;99.90;;;;;;5003695;28;20172;-68
2024/01/28 06:10:23;;;;;;;3.37;2.20;;;2.60;99.90;;;;;;5015491;28;20185;-70
2024/01/28 06:12:50;;;;;;;4.50;2.53;;;2.60;99.90;;;;;;5015723;28;20195;-70
2024/01/28 06:15:18;;;;;;;3.83;2.27;;;2.60;99.90;;;;;;5016284;28;20206;-70
2024/01/28 06:17:44;;;;;;;3.87;1.90;;;2.60;99.90;;;;;;5011220;28;20226;-70
2024/01/28 06:20:12;;;;;;;5.70;2.40;;;2.60;99.90;;;;;;4998203;28;20270;-68
2024/01/28 06:22:40;;;;;;;5.57;2.60;;;2.60;99.90;;;;;;5031990;28;20179;-67
2024/01/28 06:25:07;;;;;;;4.67;2.40;;;2.60;99.90;;;;;;5015747;28;20186;-68
2024/01/28 06:27:33;;;;;;;6.63;2.70;;;2.60;99.90;;;;;;5007620;28;20183;-68
2024/01/28 06:29:59;;;;;;;4.93;2.00;;;2.60;99.90;;;;;;5014049;28;20206;-67
2024/01/28 06:32:27;;;;;;;4.97;2.67;;;2.60;99.90;;;;;;5013546;28;20183;-68
2024/01/28 06:34:55;;;;;;;6.10;2.60;;;2.60;99.90;;;;;;5015896;28;20198;-68
2024/01/28 06:37:21;;;;;;;5.93;2.97;;;2.60;99.90;;;;;;5015479;28;20198;-68
2024/01/28 06:39:51;;;;;;;7.70;3.13;;;2.60;99.90;;;;;;5015888;28;20523;-67
2024/01/28 06:42:20;;;;;;;6.77;2.73;;;2.70;99.90;;;;;;5013664;28;20211;-68
2024/01/28 06:44:47;;;;;;;7.23;3.00;;;2.70;99.90;;;;;;5016108;28;20178;-68
2024/01/28 06:47:12;;;;;;;5.67;3.00;;;2.70;99.90;;;;;;5015310;28;20207;-68
2024/01/28 06:49:43;;;;;;;7.00;3.00;;;2.80;99.90;;;;;;5011538;28;20186;-71
2024/01/28 06:52:08;;;;;;;7.83;2.90;;;2.80;99.90;;;;;;5015608;28;20181;-68
2024/01/28 06:54:34;;;;;;;5.30;2.50;;;2.90;99.90;;;;;;5009548;28;20183;-68
2024/01/28 06:56:59;;;;;;;6.43;3.23;;;2.90;99.90;;;;;;4996120;28;20222;-68
2024/01/28 06:59:27;;;;;;;7.57;3.10;;;3.00;99.90;;;;;;5009109;28;20201;-69
2024/01/28 07:01:58;;;;;;;3.90;2.40;;;3.10;99.90;;;;;;5015425;28;20170;-68
2024/01/28 07:04:26;;;;;;;5.93;2.80;;;3.10;99.90;;;;;;5011819;28;20187;-69
2024/01/28 07:06:51;;;;;;;7.93;2.97;;;3.10;99.90;;;;;;5015536;28;20204;-68
2024/01/28 07:09:21;;;;;;;7.23;2.83;;;3.10;99.90;;;;;;5014324;28;20182;-67
2024/01/28 07:11:47;;;;;;;6.17;2.80;;;3.20;99.90;;;;;;5007062;28;20230;-69
2024/01/28 07:14:13;;;;;;;7.07;2.90;;;3.20;99.90;;;;;;5007197;28;20202;-68
2024/01/28 07:16:38;;;;;;;8.10;2.97;;;3.20;99.90;;;;;;5003989;28;20175;-69
2024/01/28 07:19:04;;;;;;;6.13;2.83;;;3.30;99.90;;;;;;5015035;28;20206;-66
2024/01/28 07:21:32;;;;;;;9.50;3.00;;;3.30;99.90;;;;;;5012872;28;20171;-69
2024/01/28 07:23:58;;;;;;;7.63;2.70;;;3.30;99.90;;;;;;5005554;28;20195;-69
2024/01/28 07:26:25;;;;;;;8.00;2.77;;;3.30;99.90;;;;;;5007347;28;20182;-67
2024/01/28 07:28:51;;;;;;;8.43;3.10;;;3.40;99.90;;;;;;5010484;28;20253;-69
2024/01/28 07:31:19;;;;;;;5.10;2.53;;;3.30;99.90;;;;;;5004641;28;20211;-68
2024/01/28 07:33:45;;;;;;;5.30;2.53;;;3.40;99.90;;;;;;5009715;28;20194;-69
2024/01/28 07:36:15;;;;;;;4.80;2.43;;;3.40;99.90;;;;;;5012347;28;20194;-69
2024/01/28 07:38:40;;;;;;;3.80;2.27;;;3.40;99.90;;;;;;4999716;28;20174;-70
2024/01/28 07:41:14;;;;;;;4.77;2.40;;;3.40;99.90;;;;;;5014855;28;20170;-70
2024/01/28 07:43:40;;;;;;;4.03;2.30;;;3.50;99.90;;;;;;5014066;28;20190;-70
2024/01/28 07:46:06;;;;;;;4.50;2.40;;;3.50;99.90;;;;;;5011905;28;20170;-69
2024/01/28 07:48:31;;;;;;;5.03;2.23;;;3.50;99.90;;;;;;5001305;28;20230;-71
2024/01/28 07:50:59;;;;;;;4.40;2.40;;;3.50;99.90;;;;;;5003866;28;20178;-69
2024/01/28 07:53:25;;;;;;;3.33;2.23;;;3.50;99.90;;;;;;5013415;28;20248;-70
2024/01/28 07:55:51;;;;;;;6.03;2.57;;;3.60;99.90;;;;;;5013710;28;20260;-70
2024/01/28 07:58:16;;;;;;;5.60;2.67;;;3.60;99.90;;;;;;5014858;28;20272;-70
2024/01/28 08:00:44;;;;;;;5.43;2.43;;;3.60;99.90;;;;;;5008759;28;20203;-70
2024/01/28 08:03:10;;;;;;;5.17;2.47;;;3.70;99.90;;;;;;5010869;28;20171;-70
2024/01/28 08:05:35;;;;;;;5.63;2.77;;;3.70;99.90;;;;;;5012191;28;20175;-70
2024/01/28 08:08:01;;;;;;;7.97;2.97;;;3.70;99.90;;;;;;5009218;28;20229;-70
2024/01/28 08:10:27;;;;;;;7.70;2.73;;;3.70;99.90;;;;;;5011032;28;20249;-71
2024/01/28 08:12:53;;;;;;;4.00;2.40;;;3.80;99.90;;;;;;5013562;28;20194;-71
2024/01/28 08:15:21;;;;;;;3.57;2.13;;;3.70;99.90;;;;;;5004493;28;20195;-70
2024/01/28 08:17:50;;;;;;;6.67;2.27;;;3.80;99.90;;;;;;5026122;28;20266;-71
2024/01/28 08:20:18;;;;;;;5.20;2.33;;;3.80;99.90;;;;;;5013194;28;20209;-71
2024/01/28 08:22:44;;;;;;;5.43;2.27;;;3.80;99.90;;;;;;5013771;28;20170;-70
2024/01/28 08:25:12;;;;;;;5.47;2.30;;;4.00;99.90;;;;;;5010035;28;20252;-68
2024/01/28 08:27:38;;;;;;;5.70;2.10;;;4.00;99.90;;;;;;5012304;28;20259;-71
2024/01/28 08:30:06;;;;;;;4.80;2.07;;;4.10;99.90;;;;;;5001148;28;20238;-71
2024/01/28 08:32:32;;;;;;;5.67;2.30;;;4.10;99.90;;;;;;5009964;28;20180;-71
2024/01/28 08:34:57;;;;;;;5.53;2.17;;;4.20;99.90;;;;;;5015591;28;20360;-70
2024/01/28 08:37:23;;;;;;;3.83;2.27;;;4.20;99.90;;;;;;5017878;28;20209;-71
2024/01/28 08:39:49;;;;;;;5.03;2.03;;;4.30;99.90;;;;;;5014672;28;20182;-68
2024/01/28 08:42:18;;;;;;;4.23;2.17;;;4.40;99.90;;;;;;5000741;28;20238;-69
2024/01/28 08:44:47;;;;;;;4.77;2.30;;;4.40;99.90;;;;;;5016820;28;20207;-70
2024/01/28 08:47:17;;;;;;;5.43;2.13;;;4.50;99.90;;;;;;5010382;28;20187;-71
2024/01/28 08:49:45;;;;;;;3.47;2.10;;;4.60;99.90;;;;;;5017925;28;20206;-70
2024/01/28 08:52:13;;;;;;;5.33;2.23;;;4.60;99.90;;;;;;5016995;28;20185;-71
2024/01/28 08:54:41;;;;;;;6.80;2.63;;;4.70;99.90;;;;;;5014090;28;20210;-71
2024/01/28 08:57:09;;;;;;;6.70;2.37;;;4.70;99.90;;;;;;5010554;28;20167;-67
2024/01/28 08:59:34;;;;;;;5.03;2.30;;;4.80;99.90;;;;;;5016217;28;20175;-70
2024/01/28 09:02:00;;;;;;;4.93;2.17;;;4.80;99.90;;;;;;5013952;28;20248;-71
2024/01/28 09:04:26;;;;;;;5.23;2.30;;;4.90;99.90;;;;;;5016201;28;20197;-70
2024/01/28 09:06:51;;;;;;;4.87;2.77;;;5.00;99.90;;;;;;5010193;28;20270;-68
2024/01/28 09:09:17;;;;;;;3.97;2.40;;;5.20;99.90;;;;;;5030592;28;20252;-70
2024/01/28 09:11:45;;;;;;;5.07;2.20;;;5.60;99.90;;;;;;5016090;28;20209;-71
2024/01/28 09:14:13;;;;;;;4.67;2.40;;;5.80;99.90;;;;;;5017544;28;20195;-70
2024/01/28 09:16:38;;;;;;;4.17;2.20;;;5.90;99.90;;;;;;5016711;28;20175;-71
2024/01/28 09:19:07;;;;;;;5.43;2.47;;;6.00;99.90;;;;;;5011470;28;20183;-70
2024/01/28 09:21:35;;;;;;;5.50;2.40;;;6.00;99.90;;;;;;5017524;28;20177;-70
2024/01/28 09:24:03;;;;;;;5.27;2.33;;;6.10;99.90;;;;;;5015626;28;20179;-70
2024/01/28 09:26:34;;;;;;;3.27;2.00;;;6.40;99.90;;;;;;5017471;28;20201;-71
2024/01/28 09:29:02;;;;;;;4.90;2.27;;;6.70;99.90;;;;;;5001423;28;20179;-73
2024/01/28 09:31:29;;;;;;;4.10;2.07;;;7.00;99.90;;;;;;5000499;28;20225;-71
2024/01/28 09:33:56;;;;;;;5.37;2.33;;;7.30;99.90;;;;;;5010251;28;20224;-71
2024/01/28 09:36:24;;;;;;;5.47;2.73;;;7.50;99.90;;;;;;5016077;28;20196;-69
2024/01/28 09:38:50;;;;;;;5.20;2.60;;;7.90;99.90;;;;;;5017255;28;20179;-71
2024/01/28 09:41:25;;;;;;;3.97;2.30;;;8.20;99.90;;;;;;5016756;28;20178;-67
2024/01/28 09:43:51;;;;;;;4.53;2.30;;;8.40;99.90;;;;;;5016322;28;20200;-69
2024/01/28 09:46:17;;;;;;;4.90;2.30;;;8.60;99.90;;;;;;5017147;28;20175;-69
2024/01/28 09:48:46;;;;;;;4.93;2.30;;;8.80;99.90;;;;;;5016103;28;20194;-69
2024/01/28 09:51:12;;;;;;;4.87;2.20;;;9.00;99.90;;;;;;5017017;28;20305;-69
2024/01/28 09:53:41;;;;;;;4.10;2.20;;;9.10;99.90;;;;;;5016452;28;20207;-69
2024/01/28 09:56:13;;;;;;;4.47;2.10;;;9.10;99.90;;;;;;5015748;28;20170;-71
2024/01/28 09:58:42;;;;;;;4.53;2.17;;;9.20;99.90;;;;;;5016002;28;20182;-70
2024/01/28 10:01:11;;;;;;;5.17;2.30;;;9.20;99.90;;;;;;5014942;28;20222;-72
2024/01/28 10:03:36;;;;;;;4.73;2.93;;;9.20;99.90;;;;;;5017890;28;20178;-70
2024/01/28 10:06:04;;;;;;;5.43;2.23;;;9.20;99.90;;;;;;5022577;28;20260;-70
2024/01/28 10:08:30;;;;;;;6.37;2.40;;;9.20;99.90;;;;;;5012347;28;20183;-70
2024/01/28 10:10:57;;;;;;;4.60;2.20;;;9.30;99.90;;;;;;5018465;28;20204;-70
2024/01/28 10:13:22;;;;;;;4.40;2.03;;;9.30;99.90;;;;;;5015256;28;20266;-73
2024/01/28 10:15:57;;;;;;;4.13;1.93;;;9.40;99.90;;;;;;5013896;28;20257;-70
2024/01/28 10:18:24;;;;;;;3.88;2.00;;;9.40;99.90;;;;;;5012151;28;20300;-71
2024/01/28 10:20:50;;;;;;;5.83;2.50;;;9.40;99.90;;;;;;5008096;28;20177;-72
2024/01/28 10:23:17;;;;;;;5.32;2.30;;;9.40;99.90;;;;;;5015762;28;20171;-72
2024/01/28 10:25:45;;;;;;;4.50;2.40;;;9.40;99.90;;;;;;5002475;28;20183;-72
2024/01/28 10:28:17;;;;;;;4.63;2.17;;;9.40;99.90;;;;;;5002576;28;20258;-72
2024/01/28 10:30:42;;;;;;;3.92;2.10;;;9.50;99.90;;;;;;5012337;28;20198;-69
2024/01/28 10:33:08;;;;;;;4.78;2.30;;;9.60;99.90;;;;;;5011911;28;20248;-72
2024/01/28 10:35:34;;;;;;;3.78;2.30;;;9.60;99.90;;;;;;5008437;28;20532;-73
2024/01/28 10:38:04;;;;;;;4.65;2.35;;;9.50;99.90;;;;;;4999298;28;20182;-71
2024/01/28 10:40:34;;;;;;;3.55;2.08;;;9.60;99.90;;;;;;4997529;28;20175;-72
2024/01/28 10:43:04;;;;;;;5.45;2.95;;;9.60;99.90;;;;;;5026674;28;20201;-70
2024/01/28 10:45:31;;;;;;;5.15;2.38;;;9.70;99.90;;;;;;5013367;28;20171;-71
2024/01/28 10:48:05;;;;;;;4.80;2.20;;;9.70;99.90;;;;;;4999756;28;20270;-71
2024/01/28 10:50:35;;;;;;;4.82;2.30;;;9.80;99.90;;;;;;5007651;28;20187;-71
2024/01/28 10:53:03;;;;;;;5.15;2.30;;;9.80;99.90;;;;;;5001649;28;20180;-71
2024/01/28 10:55:30;;;;;;;4.97;2.30;;;9.80;99.90;;;;;;5012319;28;20500;-70
2024/01/28 10:57:59;;;;;;;4.57;2.10;;;9.80;99.90;;;;;;5006975;28;20184;-69
2024/01/28 11:00:28;;;;;;;3.85;2.28;;;9.80;99.90;;;;;;5022066;28;20178;-71
2024/01/28 11:02:58;;;;;;;4.93;2.05;;;9.90;99.90;;;;;;5013191;28;20198;-68
2024/01/28 11:05:27;;;;;;;4.20;2.40;;;9.90;99.90;;;;;;5011914;28;20185;-68
2024/01/28 11:07:59;;;;;;;3.83;1.95;;;9.90;99.90;;;;;;5013916;28;20205;-66
2024/01/28 11:10:29;;;;;;;4.72;2.08;;;10.00;99.90;;;;;;5013463;28;20314;-68
2024/01/28 11:12:58;;;;;;;4.85;2.30;;;10.00;99.90;;;;;;5017444;28;20344;-68
2024/01/28 11:15:26;;;;;;;4.25;2.03;;;10.00;99.90;;;;;;5010206;28;20199;-67
2024/01/28 11:17:51;;;;;;;3.22;2.10;;;10.10;99.90;;;;;;5012528;28;20253;-67
2024/01/28 11:20:27;;;;;;;3.38;2.10;;;10.10;99.90;;;;;;5011360;28;20390;-67
2024/01/28 11:22:58;;;;;;;3.75;2.35;;;10.10;99.90;;;;;;5013580;28;20174;-67
2024/01/28 11:25:29;;;;;;;3.90;2.15;;;10.20;99.90;;;;;;5029868;28;20221;-68
2024/01/28 11:28:10;;;;;;;3.33;1.80;;;10.30;99.90;;;;;;5012784;28;20182;-67
2024/01/28 11:30:37;;;;;;;4.03;2.05;;;10.30;99.90;;;;;;5011995;28;20179;-67
2024/01/28 11:33:16;;;;;;;4.35;2.33;;;10.40;99.90;;;;;;5014244;28;20293;-67
2024/01/28 11:35:45;;;;;;;3.50;1.83;;;10.50;99.90;;;;;;5012870;28;20184;-67
2024/01/28 11:38:19;;;;;;;4.75;2.10;;;10.50;99.90;;;;;;5010507;28;20171;-68
2024/01/28 11:40:48;;;;;;;4.07;2.13;;;10.50;99.90;;;;;;5013315;28;20205;-69
2024/01/28 11:43:13;;;;;;;3.00;1.90;;;10.60;99.90;;;;;;5011239;28;20179;-68
2024/01/28 11:45:42;;;;;;;2.55;1.85;;;10.70;99.90;;;;;;4998845;28;20237;-66
2024/01/28 11:48:12;;;;;;;3.03;1.90;;;10.80;99.90;;;;;;5011669;28;20187;-67
2024/01/28 11:50:43;;;;;;;4.70;2.13;;;10.80;99.90;;;;;;5005274;28;20191;-68
2024/01/28 11:53:10;;;;;;;4.05;2.03;;;10.90;99.90;;;;;;5013597;28;20239;-66
2024/01/28 11:55:38;;;;;;;3.92;2.13;;;11.00;99.90;;;;;;5006081;28;20179;-68
2024/01/28 11:58:07;;;;;;;2.88;2.00;;;11.10;99.90;;;;;;5013475;28;20182;-68
2024/01/28 12:00:33;;;;;;;5.07;2.30;;;11.20;99.90;;;;;;5011731;28;20186;-70
2024/01/28 12:03:03;;;;;;;4.60;2.10;;;11.20;99.90;;;;;;5009940;28;20182;-68
2024/01/28 12:05:31;;;;;;;5.10;2.35;;;11.30;99.90;;;;;;5013656;28;20206;-68
2024/01/28 12:08:00;;;;;;;3.55;2.13;;;11.40;99.90;;;;;;5003942;28;20189;-68
2024/01/28 12:10:28;;;;;;;3.85;2.08;;;11.50;99.90;;;;;;4997798;28;20195;-67
2024/01/28 12:12:58;;;;;;;4.35;2.17;;;11.60;99.90;;;;;;5002628;28;20207;-67
2024/01/28 12:15:24;;;;;;;3.15;2.03;;;11.80;99.90;;;;;;5002680;28;20213;-69
2024/01/28 12:17:51;;;;;;;4.40;2.08;;;11.90;99.90;;;;;;5013443;28;20186;-69
2024/01/28 12:20:23;;;;;;;5.13;2.20;;;11.90;99.90;;;;;;5013630;28;20185;-67
2024/01/28 12:22:51;;;;;;;3.15;2.00;;;12.10;99.90;;;;;;5012153;28;20175;-69
2024/01/28 12:25:23;;;;;;;3.67;1.88;;;12.20;99.90;;;;;;5010074;28;20221;-66
2024/01/28 12:27:51;;;;;;;3.97;1.90;;;12.40;99.90;;;;;;5006175;28;20253;-67
2024/01/28 12:30:18;;;;;;;2.90;1.70;;;12.50;99.90;;;;;;4994938;28;20179;-68
2024/01/28 12:32:45;;;;;;;3.50;2.13;;;12.70;99.90;;;;;;5009289;28;20312;-67
2024/01/28 12:35:12;;;;;;;5.25;2.00;;;12.90;99.90;;;;;;5009713;28;20256;-69
2024/01/28 12:37:39;;;;;;;4.97;2.00;;;13.10;99.90;;;;;;5009866;28;20462;-68
2024/01/28 12:40:06;;;;;;;3.00;2.10;;;13.40;99.90;;;;;;5011640;28;20178;-67
2024/01/28 12:42:40;;;;;;;3.92;2.10;;;13.60;99.90;;;;;;5012423;28;20181;-70
2024/01/28 12:45:06;;;;;;;3.17;2.05;;;13.80;99.90;;;;;;5007706;28;20222;-67
2024/01/28 12:47:32;;;;;;;3.15;1.63;;;13.90;99.90;;;;;;5013158;28;20262;-68
2024/01/28 12:49:58;;;;;;;3.83;1.98;;;14.00;99.90;;;;;;5011284;28;20277;-68
2024/01/28 12:52:26;;;;;;;2.45;1.60;;;14.20;99.90;;;;;;5005637;28;20258;-64
2024/01/28 12:54:54;;;;;;;3.97;2.17;;;14.20;99.90;;;;;;5012330;28;20211;-64
2024/01/28 12:57:22;;;;;;;5.15;1.90;;;14.30;99.90;;;;;;5010470;28;20249;-67